createdAt,value
2022-07-27T00:01:16.960Z,14.20
2022-07-27T00:03:46.121Z,14.20
2022-07-27T00:06:14.156Z,14.20
2022-07-27T00:08:41.569Z,14.20
2022-07-27T00:11:10.626Z,14.20
2022-07-27T00:13:39.935Z,14.10
2022-07-27T00:16:08.145Z,14.10
2022-07-27T00:18:35.577Z,14.00
2022-07-27T00:21:03.341Z,14.00
2022-07-27T00:23:31.004Z,13.90
2022-07-27T00:26:01.741Z,13.90
2022-07-27T00:28:32.219Z,13.80
2022-07-27T00:30:59.919Z,13.80
2022-07-27T00:33:27.322Z,13.70
2022-07-27T00:35:54.910Z,13.60
2022-07-27T00:38:22.438Z,13.60
2022-07-27T00:40:50.871Z,13.60
2022-07-27T00:43:21.264Z,13.70
2022-07-27T00:45:50.102Z,13.70
2022-07-27T00:48:17.750Z,13.70
2022-07-27T00:50:47.790Z,13.80
2022-07-27T00:53:15.765Z,13.80
2022-07-27T00:55:43.753Z,13.80
2022-07-27T00:58:11.967Z,13.80
2022-07-27T01:00:41.272Z,13.80
2022-07-27T01:03:09.678Z,13.80
2022-07-27T01:05:43.301Z,13.80
2022-07-27T01:08:15.437Z,13.80
2022-07-27T01:10:43.897Z,13.80
2022-07-27T01:13:12.590Z,13.70
2022-07-27T01:15:42.569Z,13.60
2022-07-27T01:18:37.894Z,13.60
2022-07-27T01:21:08.104Z,13.60
2022-07-27T01:23:35.986Z,13.60
2022-07-27T01:26:07.700Z,13.70
2022-07-27T01:28:35.257Z,13.70
2022-07-27T01:31:03.103Z,13.70
2022-07-27T01:33:30.729Z,13.80
2022-07-27T01:35:58.442Z,13.90
2022-07-27T01:38:27.231Z,13.90
2022-07-27T01:40:56.169Z,13.80
2022-07-27T01:43:24.237Z,13.90
2022-07-27T01:45:53.085Z,13.90
2022-07-27T01:48:22.337Z,13.90
2022-07-27T01:50:52.097Z,13.80
2022-07-27T01:53:20.773Z,13.90
2022-07-27T01:55:49.142Z,13.90
2022-07-27T01:58:17.184Z,13.90
2022-07-27T02:00:46.139Z,13.90
2022-07-27T02:03:13.805Z,13.90
2022-07-27T02:05:41.822Z,13.90
2022-07-27T02:08:11.018Z,14.00
2022-07-27T02:10:59.965Z,14.00
2022-07-27T02:13:27.748Z,14.00
2022-07-27T02:15:55.402Z,13.90
2022-07-27T02:18:33.552Z,13.90
2022-07-27T02:21:05.020Z,13.90
2022-07-27T02:23:34.789Z,13.90
2022-07-27T02:26:06.434Z,13.90
2022-07-27T02:28:35.009Z,13.90
2022-07-27T02:31:02.824Z,13.90
2022-07-27T02:33:30.415Z,13.90
2022-07-27T02:35:58.394Z,13.90
2022-07-27T02:38:26.465Z,13.90
2022-07-27T02:40:54.131Z,13.90
2022-07-27T02:43:21.646Z,13.90
2022-07-27T02:45:52.572Z,13.90
2022-07-27T02:48:20.015Z,13.90
2022-07-27T02:50:47.466Z,13.90
2022-07-27T02:53:15.257Z,13.90
2022-07-27T02:55:42.819Z,13.90
2022-07-27T02:58:10.990Z,13.90
2022-07-27T03:00:38.888Z,13.80
2022-07-27T03:03:06.288Z,13.80
2022-07-27T03:05:35.960Z,13.80
2022-07-27T03:08:04.654Z,13.80
2022-07-27T03:10:32.531Z,13.80
2022-07-27T03:12:59.990Z,13.80
2022-07-27T03:15:27.625Z,13.80
2022-07-27T03:17:55.617Z,13.80
2022-07-27T03:20:23.151Z,13.80
2022-07-27T03:22:52.805Z,13.80
2022-07-27T03:25:20.424Z,13.80
2022-07-27T03:27:47.918Z,13.80
2022-07-27T03:30:15.550Z,13.90
2022-07-27T03:32:44.017Z,13.90
2022-07-27T03:35:13.321Z,13.90
2022-07-27T03:37:41.522Z,13.90
2022-07-27T03:40:10.607Z,13.90
2022-07-27T03:42:39.173Z,13.90
2022-07-27T03:45:07.494Z,13.80
2022-07-27T03:47:34.861Z,13.70
2022-07-27T03:50:02.518Z,13.70
2022-07-27T03:52:30.058Z,13.60
2022-07-27T03:54:57.631Z,13.60
2022-07-27T03:57:25.607Z,13.50
2022-07-27T03:59:52.977Z,13.50
2022-07-27T04:02:20.771Z,13.50
2022-07-27T04:04:48.292Z,13.40
2022-07-27T04:07:15.752Z,13.40
2022-07-27T04:09:43.120Z,13.40
2022-07-27T04:12:13.772Z,13.50
2022-07-27T04:14:44.237Z,13.50
2022-07-27T04:17:11.822Z,13.50
2022-07-27T04:19:59.045Z,13.60
2022-07-27T04:22:26.611Z,13.60
2022-07-27T04:24:53.902Z,13.60
2022-07-27T04:27:21.297Z,13.70
2022-07-27T04:29:48.954Z,13.70
2022-07-27T04:32:16.465Z,13.70
2022-07-27T04:34:44.902Z,13.80
2022-07-27T04:37:12.681Z,13.80
2022-07-27T04:39:40.222Z,13.70
2022-07-27T04:42:08.745Z,13.70
2022-07-27T04:44:36.142Z,13.70
2022-07-27T04:47:05.032Z,13.70
2022-07-27T04:49:32.453Z,13.70
2022-07-27T04:52:00.338Z,13.70
2022-07-27T04:54:27.970Z,13.60
2022-07-27T04:56:56.217Z,13.60
2022-07-27T04:59:23.520Z,13.50
2022-07-27T05:01:52.660Z,13.50
2022-07-27T05:04:20.491Z,13.40
2022-07-27T05:06:48.667Z,13.40
2022-07-27T05:09:22.613Z,13.30
2022-07-27T05:11:52.333Z,13.40
2022-07-27T05:14:21.349Z,13.40
2022-07-27T05:16:51.194Z,13.40
2022-07-27T05:19:21.029Z,13.40
2022-07-27T05:21:48.852Z,13.40
2022-07-27T05:24:16.343Z,13.50
2022-07-27T05:26:46.813Z,13.50
2022-07-27T05:29:14.547Z,13.50
2022-07-27T05:31:42.484Z,13.60
2022-07-27T05:34:11.373Z,13.50
2022-07-27T05:36:41.145Z,13.60
2022-07-27T05:41:51.628Z,13.50
2022-07-27T05:44:19.341Z,13.60
2022-07-27T05:46:47.407Z,13.60
2022-07-27T05:49:15.239Z,13.70
2022-07-27T05:51:43.976Z,13.70
2022-07-27T05:54:11.446Z,13.70
2022-07-27T05:56:39.858Z,13.70
2022-07-27T05:59:07.936Z,13.80
2022-07-27T06:01:35.548Z,13.90
2022-07-27T06:04:03.118Z,14.00
2022-07-27T06:06:48.852Z,14.00
2022-07-27T06:09:17.173Z,14.10
2022-07-27T06:11:44.831Z,14.10
2022-07-27T06:14:12.213Z,14.00
2022-07-27T06:16:39.974Z,14.10
2022-07-27T06:19:07.484Z,14.10
2022-07-27T06:21:35.351Z,14.10
2022-07-27T06:24:03.282Z,14.20
2022-07-27T06:26:32.784Z,14.20
2022-07-27T06:29:01.472Z,14.20
2022-07-27T06:31:35.416Z,14.10
2022-07-27T06:34:08.154Z,14.10
2022-07-27T06:36:42.709Z,14.10
2022-07-27T06:39:11.405Z,14.10
2022-07-27T06:41:39.124Z,14.10
2022-07-27T06:44:09.240Z,14.10
2022-07-27T06:46:36.995Z,14.20
2022-07-27T06:51:46.722Z,14.20
2022-07-27T06:54:15.182Z,14.20
2022-07-27T06:56:43.302Z,14.20
2022-07-27T06:59:11.076Z,14.30
2022-07-27T07:01:43.428Z,14.20
2022-07-27T07:04:15.097Z,14.30
2022-07-27T07:06:43.023Z,14.30
2022-07-27T07:09:11.009Z,14.30
2022-07-27T07:11:43.960Z,14.30
2022-07-27T07:14:11.591Z,14.40
2022-07-27T07:16:39.183Z,14.50
2022-07-27T07:19:06.686Z,14.50
2022-07-27T07:21:35.303Z,14.60
2022-07-27T07:24:03.018Z,14.70
2022-07-27T07:26:30.338Z,14.70
2022-07-27T07:29:00.156Z,14.70
2022-07-27T07:31:28.008Z,14.70
2022-07-27T07:33:56.095Z,14.80
2022-07-27T07:36:23.544Z,14.80
2022-07-27T07:38:50.956Z,14.80
2022-07-27T07:41:18.681Z,14.90
2022-07-27T07:43:46.436Z,14.90
2022-07-27T07:46:19.112Z,14.90
2022-07-27T07:51:33.895Z,14.90
2022-07-27T07:54:01.405Z,14.90
2022-07-27T07:56:29.391Z,15.00
2022-07-27T07:58:57.134Z,15.00
2022-07-27T08:01:37.725Z,15.00
2022-07-27T08:04:07.463Z,15.00
2022-07-27T08:06:34.917Z,15.10
2022-07-27T08:09:02.497Z,15.10
2022-07-27T08:11:30.634Z,15.20
2022-07-27T08:13:58.242Z,15.20
2022-07-27T08:16:28.538Z,15.20
2022-07-27T08:18:58.282Z,15.20
2022-07-27T08:21:25.811Z,15.30
2022-07-27T08:23:54.194Z,15.30
2022-07-27T08:26:26.392Z,15.30
2022-07-27T08:31:51.330Z,15.40
2022-07-27T08:34:20.856Z,15.40
2022-07-27T08:36:48.424Z,15.40
2022-07-27T08:40:19.928Z,15.40
2022-07-27T08:42:17.588Z,15.40
2022-07-27T08:44:47.005Z,15.50
2022-07-27T08:47:16.796Z,15.60
2022-07-27T08:52:29.059Z,15.60
2022-07-27T08:54:56.505Z,15.60
2022-07-27T08:57:25.061Z,15.60
2022-07-27T08:59:54.927Z,15.60
2022-07-27T09:02:24.993Z,15.70
2022-07-27T09:04:52.293Z,15.70
2022-07-27T09:07:31.138Z,15.70
2022-07-27T09:09:58.835Z,15.70
2022-07-27T09:12:31.015Z,15.70
2022-07-27T09:15:14.845Z,15.70
2022-07-27T09:17:48.604Z,15.70
2022-07-27T09:20:19.796Z,15.70
2022-07-27T09:22:54.733Z,15.80
2022-07-27T09:28:32.332Z,15.90
2022-07-27T09:31:16.741Z,15.90
2022-07-27T09:33:50.407Z,16.00
2022-07-27T09:36:20.373Z,16.10
2022-07-27T09:39:02.451Z,16.10
2022-07-27T09:41:51.500Z,16.10
2022-07-27T09:44:44.622Z,16.10
2022-07-27T09:47:31.700Z,16.10
2022-07-27T09:50:21.601Z,16.10
2022-07-27T09:52:49.606Z,16.10
2022-07-27T09:55:21.426Z,16.10
2022-07-27T09:57:53.968Z,16.10
2022-07-27T10:00:24.076Z,16.20
2022-07-27T10:02:56.332Z,16.20
2022-07-27T10:05:24.364Z,16.10
2022-07-27T10:07:53.697Z,16.10
2022-07-27T10:10:22.596Z,16.20
2022-07-27T10:12:54.570Z,16.20
2022-07-27T10:15:25.545Z,16.20
2022-07-27T10:18:22.218Z,16.30
2022-07-27T10:20:53.858Z,16.30
2022-07-27T10:23:30.105Z,16.30
2022-07-27T10:26:26.597Z,16.30
2022-07-27T10:29:26.694Z,16.20
2022-07-27T10:31:54.682Z,16.10
2022-07-27T10:34:43.329Z,16.10
2022-07-27T10:37:27.000Z,16.10
2022-07-27T10:40:16.850Z,16.00
2022-07-27T10:42:51.877Z,16.10
2022-07-27T10:45:21.246Z,16.10
2022-07-27T10:47:51.599Z,16.10
2022-07-27T10:50:24.878Z,16.10
2022-07-27T10:53:00.613Z,16.30
2022-07-27T10:55:36.156Z,16.30
2022-07-27T10:58:16.037Z,16.40
2022-07-27T11:00:55.823Z,16.50
2022-07-27T11:03:30.070Z,16.50
2022-07-27T11:06:31.940Z,16.50
2022-07-27T11:09:53.382Z,16.50
2022-07-27T11:11:55.922Z,16.50
2022-07-27T11:14:30.137Z,16.60
2022-07-27T11:17:39.893Z,16.60
2022-07-27T11:20:02.894Z,16.70
2022-07-27T11:25:29.593Z,16.70
2022-07-27T11:27:58.393Z,16.70
2022-07-27T11:30:29.385Z,16.70
2022-07-27T11:32:57.399Z,16.60
2022-07-27T11:35:26.312Z,16.60
2022-07-27T11:38:03.716Z,16.70
2022-07-27T11:43:45.486Z,16.70
2022-07-27T11:46:15.239Z,16.70
2022-07-27T11:49:08.974Z,16.70
2022-07-27T11:51:42.550Z,16.80
2022-07-27T11:54:33.077Z,16.80
2022-07-27T11:57:02.787Z,16.90
2022-07-27T11:59:36.530Z,16.90
2022-07-27T12:02:08.337Z,16.90
2022-07-27T12:07:37.681Z,17.10
2022-07-27T12:10:09.586Z,17.20
2022-07-27T12:12:38.299Z,17.20
2022-07-27T12:18:08.509Z,17.50
2022-07-27T12:20:43.436Z,17.50
2022-07-27T12:25:54.674Z,17.70
2022-07-27T12:28:28.331Z,17.70
2022-07-27T12:30:57.167Z,17.70
2022-07-27T12:33:39.672Z,17.80
2022-07-27T12:36:09.675Z,17.80
2022-07-27T12:38:51.056Z,17.90
2022-07-27T12:47:42.575Z,18.00
2022-07-27T12:50:16.515Z,18.00
2022-07-27T12:52:52.558Z,18.10
2022-07-27T12:55:22.617Z,18.20
2022-07-27T12:57:56.062Z,18.30
2022-07-27T13:00:31.055Z,18.30
2022-07-27T13:03:02.253Z,18.30
2022-07-27T13:05:43.467Z,18.30
2022-07-27T13:08:17.186Z,18.30
2022-07-27T13:10:45.287Z,18.40
2022-07-27T13:13:14.468Z,18.50
2022-07-27T13:15:42.985Z,18.50
2022-07-27T13:18:10.533Z,18.70
2022-07-27T13:20:38.129Z,18.90
2022-07-27T13:23:09.639Z,19.00
2022-07-27T13:25:41.209Z,19.00
2022-07-27T13:31:05.852Z,19.00
2022-07-27T13:36:16.500Z,18.90
2022-07-27T13:38:45.056Z,18.80
2022-07-27T13:41:12.945Z,18.70
2022-07-27T13:43:42.710Z,18.70
2022-07-27T13:46:12.211Z,18.60
2022-07-27T13:48:39.820Z,18.50
2022-07-27T13:51:07.653Z,18.50
2022-07-27T13:53:35.611Z,18.40
2022-07-27T13:56:03.487Z,18.30
2022-07-27T13:58:31.356Z,18.20
2022-07-27T14:01:07.812Z,18.10
2022-07-27T14:03:43.919Z,18.10
2022-07-27T14:06:15.736Z,18.00
2022-07-27T14:08:43.337Z,18.00
2022-07-27T14:11:11.516Z,18.00
2022-07-27T14:13:39.824Z,17.90
2022-07-27T14:16:08.572Z,17.90
2022-07-27T14:21:20.002Z,17.90
2022-07-27T14:23:47.577Z,17.90
2022-07-27T14:26:16.835Z,17.90
2022-07-27T14:28:49.167Z,18.00
2022-07-27T14:31:16.680Z,18.00
2022-07-27T14:33:47.128Z,18.00
2022-07-27T14:36:15.723Z,18.00
2022-07-27T14:38:44.664Z,18.10
2022-07-27T14:41:15.160Z,18.20
2022-07-27T14:43:42.614Z,18.20
2022-07-27T14:46:12.619Z,18.30
2022-07-27T14:51:39.153Z,18.50
2022-07-27T14:54:08.833Z,18.60
2022-07-27T14:56:37.819Z,18.70
2022-07-27T14:59:05.980Z,18.70
2022-07-27T15:01:39.132Z,18.80
2022-07-27T15:04:07.512Z,19.00
2022-07-27T15:06:39.212Z,19.00
2022-07-27T15:09:08.181Z,19.10
2022-07-27T15:11:35.734Z,19.10
2022-07-27T15:14:05.072Z,19.20
2022-07-27T15:16:36.106Z,19.20
2022-07-27T15:19:05.972Z,19.20
2022-07-27T15:21:35.641Z,19.20
2022-07-27T15:24:06.420Z,19.20
2022-07-27T15:26:35.241Z,19.20
2022-07-27T15:29:04.175Z,19.20
2022-07-27T15:31:32.364Z,19.20
2022-07-27T15:34:00.970Z,19.20
2022-07-27T15:36:32.651Z,19.10
2022-07-27T15:39:01.747Z,19.10
2022-07-27T15:41:33.382Z,19.20
2022-07-27T15:44:06.115Z,19.20
2022-07-27T15:46:35.136Z,19.30
2022-07-27T15:49:02.861Z,19.30
2022-07-27T15:51:30.505Z,19.30
2022-07-27T15:53:58.232Z,19.20
2022-07-27T15:56:26.402Z,19.20
2022-07-27T15:58:54.075Z,19.10
2022-07-27T16:01:22.464Z,19.00
2022-07-27T16:04:02.435Z,19.00
2022-07-27T16:06:38.592Z,18.90
2022-07-27T16:09:10.017Z,18.90
2022-07-27T16:11:38.270Z,18.80
2022-07-27T16:14:09.231Z,18.80
2022-07-27T16:16:37.005Z,18.70
2022-07-27T16:19:13.235Z,18.70
2022-07-27T16:21:55.477Z,18.70
2022-07-27T16:24:25.585Z,18.70
2022-07-27T16:26:53.490Z,18.70
2022-07-27T16:29:21.109Z,18.60
2022-07-27T16:31:49.264Z,18.60
2022-07-27T16:34:17.717Z,18.50
2022-07-27T16:36:45.261Z,18.40
2022-07-27T16:39:13.922Z,18.40
2022-07-27T16:41:41.685Z,18.50
2022-07-27T16:44:09.727Z,18.50
2022-07-27T16:46:37.534Z,18.60
2022-07-27T16:49:05.592Z,18.60
2022-07-27T16:51:33.807Z,18.80
2022-07-27T16:54:03.341Z,18.90
2022-07-27T16:56:32.645Z,18.80
2022-07-27T16:59:01.247Z,18.60
2022-07-27T17:01:29.753Z,18.60
2022-07-27T17:06:40.109Z,18.50
2022-07-27T17:09:09.824Z,18.50
2022-07-27T17:11:37.987Z,18.50
2022-07-27T17:14:08.033Z,18.40
2022-07-27T17:19:35.162Z,18.30
2022-07-27T17:22:02.880Z,18.30
2022-07-27T17:27:14.289Z,18.20
2022-07-27T17:29:41.878Z,18.10
2022-07-27T17:32:09.748Z,18.10
2022-07-27T17:34:42.548Z,18.10
2022-07-27T17:37:10.230Z,18.10
2022-07-27T17:39:41.913Z,18.00
2022-07-27T17:42:13.781Z,18.00
2022-07-27T17:44:46.584Z,18.00
2022-07-27T17:47:14.036Z,18.00
2022-07-27T17:49:41.734Z,18.00
2022-07-27T17:52:09.554Z,18.10
2022-07-27T17:54:37.009Z,18.20
2022-07-27T17:57:04.483Z,18.30
2022-07-27T17:59:37.894Z,18.30
2022-07-27T18:02:07.595Z,18.40
2022-07-27T18:04:39.158Z,18.50
2022-07-27T18:07:07.077Z,18.50
2022-07-27T18:09:34.815Z,18.60
2022-07-27T18:12:02.964Z,18.60
2022-07-27T18:14:31.880Z,18.50
2022-07-27T18:17:00.818Z,18.40
2022-07-27T18:19:29.623Z,18.30
2022-07-27T18:21:58.227Z,18.20
2022-07-27T18:24:25.795Z,18.10
2022-07-27T18:26:55.339Z,17.90
2022-07-27T18:29:22.844Z,17.80
2022-07-27T18:31:50.283Z,17.70
2022-07-27T18:34:18.385Z,17.70
2022-07-27T18:36:47.347Z,17.70
2022-07-27T18:39:20.064Z,17.60
2022-07-27T18:41:48.812Z,17.60
2022-07-27T18:44:16.860Z,17.50
2022-07-27T18:46:48.486Z,17.50
2022-07-27T18:49:16.646Z,17.50
2022-07-27T18:51:44.495Z,17.40
2022-07-27T18:54:12.741Z,17.40
2022-07-27T18:56:43.437Z,17.30
2022-07-27T18:59:12.504Z,17.30
2022-07-27T19:01:40.537Z,17.20
2022-07-27T19:04:08.255Z,17.20
2022-07-27T19:06:36.118Z,17.10
2022-07-27T19:09:04.850Z,17.10
2022-07-27T19:11:34.227Z,17.00
2022-07-27T19:14:03.753Z,17.10
2022-07-27T19:16:31.851Z,17.00
2022-07-27T19:18:59.765Z,17.00
2022-07-27T19:21:27.362Z,17.00
2022-07-27T19:23:55.738Z,16.90
2022-07-27T19:26:23.217Z,16.90
2022-07-27T19:28:51.032Z,16.90
2022-07-27T19:31:23.178Z,16.80
2022-07-27T19:33:53.363Z,16.90
2022-07-27T19:36:23.749Z,16.90
2022-07-27T19:38:52.322Z,16.80
2022-07-27T19:41:20.880Z,16.80
2022-07-27T19:43:50.054Z,16.80
2022-07-27T19:46:18.312Z,16.70
2022-07-27T19:48:46.242Z,16.70
2022-07-27T19:51:15.868Z,16.70
2022-07-27T19:53:44.469Z,16.70
2022-07-27T19:56:13.550Z,16.60
2022-07-27T19:58:41.212Z,16.60
2022-07-27T20:01:11.584Z,16.60
2022-07-27T20:03:48.794Z,16.50
2022-07-27T20:06:23.424Z,16.50
2022-07-27T20:08:56.326Z,16.40
2022-07-27T20:11:24.314Z,16.50
2022-07-27T20:13:53.038Z,16.50
2022-07-27T20:16:28.831Z,16.50
2022-07-27T20:18:57.382Z,16.50
2022-07-27T20:21:24.732Z,16.40
2022-07-27T20:23:52.710Z,16.40
2022-07-27T20:26:22.098Z,16.40
2022-07-27T20:28:50.371Z,16.40
2022-07-27T20:31:21.461Z,16.30
2022-07-27T20:33:48.915Z,16.30
2022-07-27T20:36:20.926Z,16.30
2022-07-27T20:38:49.498Z,16.30
2022-07-27T20:41:16.859Z,16.30
2022-07-27T20:43:44.930Z,16.20
2022-07-27T20:46:13.098Z,16.10
2022-07-27T20:48:43.392Z,16.10
2022-07-27T20:51:12.829Z,16.10
2022-07-27T20:53:42.567Z,16.00
2022-07-27T20:56:10.899Z,16.00
2022-07-27T20:58:39.170Z,16.00
2022-07-27T21:01:09.902Z,16.00
2022-07-27T21:03:38.797Z,15.90
2022-07-27T21:06:07.266Z,15.90
2022-07-27T21:08:35.882Z,15.90
2022-07-27T21:11:03.384Z,15.90
2022-07-27T21:13:31.187Z,15.90
2022-07-27T21:16:00.035Z,15.80
2022-07-27T21:18:29.303Z,15.80
2022-07-27T21:20:57.210Z,15.80
2022-07-27T21:23:44.294Z,15.80
2022-07-27T21:26:12.297Z,15.80
2022-07-27T21:28:43.296Z,15.80
2022-07-27T21:31:10.982Z,15.70
2022-07-27T21:33:40.106Z,15.80
2022-07-27T21:36:08.663Z,15.80
2022-07-27T21:38:36.446Z,15.70
2022-07-27T21:41:04.931Z,15.70
2022-07-27T21:43:33.938Z,15.70
2022-07-27T21:46:02.056Z,15.70
2022-07-27T21:48:29.618Z,15.70
2022-07-27T21:50:58.919Z,15.70
2022-07-27T21:53:27.481Z,15.60
2022-07-27T21:55:55.397Z,15.60
2022-07-27T21:58:24.093Z,15.60
2022-07-27T22:00:52.084Z,15.60
2022-07-27T22:03:20.624Z,15.60
2022-07-27T22:05:48.546Z,15.60
2022-07-27T22:08:16.046Z,15.60
2022-07-27T22:10:43.582Z,15.60
2022-07-27T22:13:11.222Z,15.50
2022-07-27T22:15:38.911Z,15.60
2022-07-27T22:18:06.690Z,15.60
2022-07-27T22:20:35.229Z,15.60
2022-07-27T22:23:03.211Z,15.50
2022-07-27T22:25:30.942Z,15.50
2022-07-27T22:27:58.817Z,15.50
2022-07-27T22:30:27.710Z,15.50
2022-07-27T22:32:56.572Z,15.50
2022-07-27T22:35:24.026Z,15.40
2022-07-27T22:37:51.588Z,15.40
2022-07-27T22:40:22.776Z,15.40
2022-07-27T22:42:50.331Z,15.30
2022-07-27T22:45:18.073Z,15.30
2022-07-27T22:47:45.371Z,15.30
2022-07-27T22:50:17.957Z,15.30
2022-07-27T22:52:46.054Z,15.30
2022-07-27T22:55:13.361Z,15.20
2022-07-27T22:57:40.796Z,15.10
2022-07-27T23:00:09.861Z,15.20
2022-07-27T23:02:37.331Z,15.10
2022-07-27T23:05:05.279Z,15.10
2022-07-27T23:07:33.779Z,15.10
2022-07-27T23:10:01.086Z,15.10
2022-07-27T23:12:28.927Z,15.00
2022-07-27T23:14:56.454Z,15.00
2022-07-27T23:17:24.438Z,15.00
2022-07-27T23:19:51.956Z,14.90
2022-07-27T23:22:19.647Z,14.90
2022-07-27T23:24:48.112Z,14.90
2022-07-27T23:27:15.813Z,14.90
2022-07-27T23:29:43.725Z,14.80
2022-07-27T23:32:11.857Z,14.80
2022-07-27T23:34:39.242Z,14.80
2022-07-27T23:37:07.108Z,14.80
2022-07-27T23:39:34.705Z,14.70
2022-07-27T23:42:02.203Z,14.70
2022-07-27T23:44:29.918Z,14.70
2022-07-27T23:46:57.448Z,14.70
2022-07-27T23:49:25.164Z,14.70
2022-07-27T23:51:53.226Z,14.60
2022-07-27T23:54:22.933Z,14.60
2022-07-27T23:56:50.433Z,14.60
2022-07-27T23:59:20.163Z,14.60
